createdAt,value
2022-08-30T00:01:33.894Z,30.04
2022-08-30T00:04:08.915Z,30.03
2022-08-30T00:06:40.662Z,30.03
2022-08-30T00:09:13.819Z,30.03
2022-08-30T00:11:46.062Z,30.05
2022-08-30T00:14:17.862Z,30.07
2022-08-30T00:16:49.643Z,30.11
2022-08-30T00:19:21.797Z,30.13
2022-08-30T00:21:53.700Z,30.14
2022-08-30T00:24:25.455Z,30.17
2022-08-30T00:26:57.670Z,30.19
2022-08-30T00:29:29.737Z,30.20
2022-08-30T00:32:04.073Z,30.24
2022-08-30T00:34:36.205Z,30.26
2022-08-30T00:37:08.379Z,30.30
2022-08-30T00:39:40.206Z,30.34
2022-08-30T00:42:12.413Z,30.39
2022-08-30T00:44:44.198Z,30.42
2022-08-30T00:47:16.141Z,30.50
2022-08-30T00:49:50.070Z,30.51
2022-08-30T00:52:22.977Z,30.55
2022-08-30T00:54:55.088Z,30.59
2022-08-30T00:57:26.874Z,30.62
2022-08-30T00:59:59.207Z,30.64
2022-08-30T01:02:32.613Z,30.68
2022-08-30T01:05:06.227Z,30.70
2022-08-30T01:07:38.023Z,30.72
2022-08-30T01:10:12.007Z,30.73
2022-08-30T01:12:44.775Z,30.79
2022-08-30T01:15:17.267Z,30.81
2022-08-30T01:17:50.690Z,30.85
2022-08-30T01:20:26.829Z,30.87
2022-08-30T01:23:01.319Z,30.94
2022-08-30T01:25:33.149Z,30.97
2022-08-30T01:28:09.965Z,30.97
2022-08-30T01:30:42.215Z,30.97
2022-08-30T01:33:14.341Z,30.98
2022-08-30T01:35:51.240Z,31.00
2022-08-30T01:38:25.759Z,31.01
2022-08-30T01:41:01.713Z,31.04
2022-08-30T01:43:33.530Z,31.04
2022-08-30T01:46:08.193Z,31.04
2022-08-30T01:48:40.686Z,31.09
2022-08-30T01:51:15.695Z,31.11
2022-08-30T01:53:48.121Z,31.20
2022-08-30T01:56:20.901Z,31.27
2022-08-30T01:58:53.176Z,31.30
2022-08-30T02:01:26.401Z,31.35
2022-08-30T02:03:59.193Z,31.39
2022-08-30T02:06:31.128Z,31.43
2022-08-30T02:09:03.301Z,31.44
2022-08-30T02:11:36.103Z,31.47
2022-08-30T02:14:08.368Z,31.51
2022-08-30T02:16:42.367Z,31.55
2022-08-30T02:19:14.262Z,31.59
2022-08-30T02:21:46.843Z,31.62
2022-08-30T02:24:46.407Z,31.69
2022-08-30T02:27:36.351Z,31.70
2022-08-30T02:30:09.850Z,31.71
2022-08-30T02:32:43.144Z,31.72
2022-08-30T02:35:15.292Z,31.73
2022-08-30T02:37:47.387Z,31.75
2022-08-30T02:40:20.326Z,31.77
2022-08-30T02:42:52.259Z,31.76
2022-08-30T02:45:24.483Z,31.74
2022-08-30T02:47:58.258Z,31.73
2022-08-30T02:50:30.216Z,31.70
2022-08-30T02:53:02.255Z,31.68
2022-08-30T02:55:34.419Z,31.68
2022-08-30T02:58:06.285Z,31.66
2022-08-30T03:00:38.547Z,31.66
2022-08-30T03:03:10.730Z,31.66
2022-08-30T03:05:43.619Z,31.66
2022-08-30T03:08:15.802Z,31.65
2022-08-30T03:10:48.051Z,31.67
2022-08-30T03:13:20.087Z,31.68
2022-08-30T03:15:52.180Z,31.69
2022-08-30T03:18:24.590Z,31.70
2022-08-30T03:20:56.402Z,31.70
2022-08-30T03:23:28.753Z,31.72
2022-08-30T03:26:01.228Z,31.73
2022-08-30T03:28:33.121Z,31.74
2022-08-30T03:31:05.034Z,31.75
2022-08-30T03:33:37.502Z,31.76
2022-08-30T03:36:10.095Z,31.77
2022-08-30T03:38:42.147Z,31.82
2022-08-30T03:41:15.374Z,31.85
2022-08-30T03:43:49.070Z,31.87
2022-08-30T03:46:22.845Z,31.93
2022-08-30T03:48:59.935Z,31.97
2022-08-30T03:51:31.993Z,32.04
2022-08-30T03:54:04.649Z,32.12
2022-08-30T03:56:36.952Z,32.17
2022-08-30T03:59:09.206Z,32.21
2022-08-30T04:01:43.775Z,32.28
2022-08-30T04:04:20.557Z,32.34
2022-08-30T04:06:53.346Z,32.37
2022-08-30T04:09:26.529Z,32.41
2022-08-30T04:11:58.421Z,32.46
2022-08-30T04:14:30.294Z,32.52
2022-08-30T04:17:02.050Z,32.58
2022-08-30T04:19:33.806Z,32.65
2022-08-30T04:22:06.759Z,32.69
2022-08-30T04:24:40.272Z,32.74
2022-08-30T04:27:12.154Z,32.77
2022-08-30T04:29:45.544Z,32.80
2022-08-30T04:32:18.320Z,32.81
2022-08-30T04:34:50.270Z,32.84
2022-08-30T04:37:22.037Z,32.86
2022-08-30T04:39:57.700Z,32.88
2022-08-30T04:42:32.176Z,32.90
2022-08-30T04:45:05.645Z,32.92
2022-08-30T04:47:37.749Z,32.93
2022-08-30T04:50:10.188Z,32.94
2022-08-30T04:52:41.996Z,32.97
2022-08-30T04:55:19.369Z,32.99
2022-08-30T04:57:53.177Z,33.02
2022-08-30T05:00:25.305Z,33.03
2022-08-30T05:02:57.093Z,33.05
2022-08-30T05:05:44.244Z,33.07
2022-08-30T05:08:21.048Z,33.10
2022-08-30T05:10:56.446Z,33.11
2022-08-30T05:13:35.722Z,33.12
2022-08-30T05:16:09.757Z,33.13
2022-08-30T05:18:41.592Z,33.16
2022-08-30T05:21:15.078Z,33.17
2022-08-30T05:23:47.415Z,33.15
2022-08-30T05:26:21.871Z,33.07
2022-08-30T05:28:53.688Z,32.97
2022-08-30T05:31:27.462Z,32.93
2022-08-30T05:33:59.427Z,32.84
2022-08-30T05:36:32.620Z,32.81
2022-08-30T05:39:05.747Z,32.78
2022-08-30T05:41:38.335Z,32.73
2022-08-30T05:44:11.487Z,32.67
2022-08-30T05:46:47.406Z,32.65
2022-08-30T05:49:19.635Z,32.59
2022-08-30T05:51:51.769Z,32.51
2022-08-30T05:54:23.539Z,32.53
2022-08-30T05:56:55.385Z,32.48
2022-08-30T05:59:27.443Z,32.46
2022-08-30T06:02:00.186Z,32.42
2022-08-30T06:04:32.332Z,32.41
2022-08-30T06:07:04.249Z,32.39
2022-08-30T06:09:36.191Z,32.39
2022-08-30T06:12:08.117Z,32.41
2022-08-30T06:14:41.125Z,32.44
2022-08-30T06:17:13.064Z,32.24
2022-08-30T06:19:44.953Z,32.46
2022-08-30T06:22:17.209Z,32.52
2022-08-30T06:24:57.752Z,32.53
2022-08-30T06:27:30.503Z,32.53
2022-08-30T06:30:02.347Z,32.54
2022-08-30T06:32:34.504Z,32.52
2022-08-30T06:35:07.147Z,32.52
2022-08-30T06:37:39.210Z,32.49
2022-08-30T06:40:11.913Z,32.56
2022-08-30T06:42:43.813Z,32.55
2022-08-30T06:45:17.991Z,32.56
2022-08-30T06:47:50.145Z,32.56
2022-08-30T06:50:22.053Z,32.64
2022-08-30T06:52:54.203Z,32.68
2022-08-30T06:55:29.193Z,32.67
2022-08-30T06:58:02.140Z,32.72
2022-08-30T07:00:34.232Z,32.73
2022-08-30T07:03:08.677Z,32.77
2022-08-30T07:05:40.589Z,32.74
2022-08-30T07:08:12.483Z,32.81
2022-08-30T07:10:44.401Z,32.82
2022-08-30T07:13:16.543Z,32.86
2022-08-30T07:15:48.607Z,32.89
2022-08-30T07:18:38.707Z,32.87
2022-08-30T07:21:12.435Z,32.85
2022-08-30T07:23:45.437Z,32.79
2022-08-30T07:26:18.165Z,32.81
2022-08-30T07:28:55.716Z,32.80
2022-08-30T07:31:28.733Z,32.82
2022-08-30T07:34:00.560Z,32.85
2022-08-30T07:36:32.819Z,32.84
2022-08-30T07:39:05.583Z,32.78
2022-08-30T07:41:42.519Z,32.82
2022-08-30T07:44:15.256Z,32.79
2022-08-30T07:46:47.148Z,32.75
2022-08-30T07:49:19.746Z,32.71
2022-08-30T07:51:51.889Z,32.73
2022-08-30T07:54:23.821Z,32.71
2022-08-30T07:56:57.525Z,32.70
2022-08-30T07:59:31.812Z,32.66
2022-08-30T08:02:06.389Z,32.65
2022-08-30T08:04:38.265Z,32.60
2022-08-30T08:07:10.112Z,32.55
2022-08-30T08:09:42.053Z,32.50
2022-08-30T08:12:14.318Z,32.41
2022-08-30T08:14:46.451Z,32.33
2022-08-30T08:17:18.694Z,32.36
2022-08-30T08:19:50.850Z,32.38
2022-08-30T08:22:22.910Z,32.54
2022-08-30T08:24:54.695Z,32.50
2022-08-30T08:27:26.515Z,32.51
2022-08-30T08:29:58.596Z,32.55
2022-08-30T08:32:30.649Z,32.62
2022-08-30T08:35:02.597Z,32.68
2022-08-30T08:37:34.852Z,32.81
2022-08-30T08:40:07.704Z,32.79
2022-08-30T08:42:39.608Z,32.82
2022-08-30T08:45:16.181Z,32.90
2022-08-30T08:48:11.180Z,32.73
2022-08-30T08:51:05.119Z,32.62
2022-08-30T08:53:47.293Z,32.48
2022-08-30T08:56:21.582Z,32.43
2022-08-30T08:58:55.773Z,32.39
2022-08-30T09:01:30.316Z,32.33
2022-08-30T09:04:05.008Z,32.30
2022-08-30T09:06:45.742Z,32.26
2022-08-30T09:09:20.921Z,32.25
2022-08-30T09:11:52.839Z,32.22
2022-08-30T09:14:30.362Z,32.24
2022-08-30T09:17:08.605Z,32.22
2022-08-30T09:19:42.624Z,32.20
2022-08-30T09:22:28.102Z,32.16
2022-08-30T09:25:08.853Z,32.20
2022-08-30T09:27:45.386Z,32.28
2022-08-30T09:30:20.932Z,32.36
2022-08-30T09:33:00.602Z,32.42
2022-08-30T09:35:44.486Z,32.51
2022-08-30T09:38:20.731Z,32.57
2022-08-30T09:40:54.259Z,32.63
2022-08-30T09:43:30.364Z,32.69
2022-08-30T09:46:02.425Z,32.74
2022-08-30T09:48:35.723Z,32.77
2022-08-30T09:51:14.221Z,32.81
2022-08-30T09:54:17.458Z,32.85
2022-08-30T09:56:59.472Z,32.88
2022-08-30T09:59:31.263Z,32.90
2022-08-30T10:02:14.825Z,32.91
2022-08-30T10:04:57.969Z,32.93
2022-08-30T10:07:36.202Z,32.97
2022-08-30T10:10:17.283Z,32.97
2022-08-30T10:13:01.382Z,32.98
2022-08-30T10:15:53.603Z,32.98
2022-08-30T10:18:34.786Z,32.97
2022-08-30T10:21:06.696Z,32.97
2022-08-30T10:23:45.126Z,32.73
2022-08-30T10:26:19.408Z,32.55
2022-08-30T10:29:13.392Z,32.41
2022-08-30T10:31:52.345Z,32.33
2022-08-30T10:34:37.152Z,32.26
2022-08-30T10:37:31.964Z,32.20
2022-08-30T10:40:45.131Z,32.13
2022-08-30T10:43:24.357Z,32.09
2022-08-30T10:46:02.144Z,32.03
2022-08-30T10:48:44.328Z,32.04
2022-08-30T10:51:25.166Z,32.04
2022-08-30T10:53:59.827Z,32.03
2022-08-30T10:56:31.988Z,32.02
2022-08-30T10:59:06.804Z,32.01
2022-08-30T11:01:46.512Z,32.03
2022-08-30T11:04:22.053Z,32.01
2022-08-30T11:07:12.950Z,32.02
2022-08-30T11:09:52.007Z,32.02
2022-08-30T11:12:24.956Z,32.04
2022-08-30T11:14:58.949Z,32.03
2022-08-30T11:17:37.536Z,32.03
2022-08-30T11:20:23.414Z,32.02
2022-08-30T11:23:13.653Z,32.00
2022-08-30T11:25:58.014Z,31.99
2022-08-30T11:28:39.503Z,31.96
2022-08-30T11:31:30.931Z,31.98
2022-08-30T11:34:03.343Z,31.95
2022-08-30T11:36:45.862Z,31.96
2022-08-30T11:39:36.587Z,31.95
2022-08-30T11:42:29.364Z,31.94
2022-08-30T11:45:20.468Z,31.91
2022-08-30T11:47:54.079Z,31.93
2022-08-30T11:50:35.153Z,31.92
2022-08-30T11:53:25.294Z,31.90
2022-08-30T11:55:57.121Z,31.90
2022-08-30T11:58:49.667Z,31.88
2022-08-30T12:04:27.559Z,31.82
2022-08-30T12:07:07.195Z,31.82
2022-08-30T12:09:40.481Z,31.81
2022-08-30T12:12:14.090Z,31.80
2022-08-30T12:14:56.473Z,31.79
2022-08-30T12:17:46.263Z,31.79
2022-08-30T12:20:21.238Z,31.75
2022-08-30T12:22:54.329Z,31.76
2022-08-30T12:25:31.465Z,31.75
2022-08-30T12:28:23.609Z,31.74
2022-08-30T12:30:55.921Z,31.74
2022-08-30T12:33:30.775Z,31.76
2022-08-30T12:36:08.393Z,31.74
2022-08-30T12:38:42.737Z,31.75
2022-08-30T12:41:21.487Z,31.74
2022-08-30T12:43:54.047Z,31.68
2022-08-30T12:46:26.060Z,31.58
2022-08-30T12:48:58.112Z,31.56
2022-08-30T12:51:31.821Z,31.57
2022-08-30T12:54:07.967Z,31.60
2022-08-30T12:56:49.658Z,31.64
2022-08-30T13:00:02.404Z,31.69
2022-08-30T13:02:49.084Z,31.60
2022-08-30T13:05:29.837Z,31.48
2022-08-30T13:08:12.349Z,31.37
2022-08-30T13:10:57.289Z,31.27
2022-08-30T13:13:35.982Z,31.16
2022-08-30T13:16:20.281Z,31.06
2022-08-30T13:19:15.076Z,31.00
2022-08-30T13:21:54.777Z,30.91
2022-08-30T13:24:27.153Z,30.86
2022-08-30T13:27:03.725Z,30.83
2022-08-30T13:29:35.529Z,30.76
2022-08-30T13:32:07.441Z,30.72
2022-08-30T13:34:48.582Z,30.71
2022-08-30T13:40:19.118Z,30.66
2022-08-30T13:42:52.100Z,30.64
2022-08-30T13:48:23.644Z,30.58
2022-08-30T13:50:57.216Z,30.56
2022-08-30T13:56:21.372Z,30.49
2022-08-30T13:58:53.270Z,30.49
2022-08-30T14:01:25.533Z,30.46
2022-08-30T14:09:41.142Z,30.38
2022-08-30T14:12:13.096Z,30.36
2022-08-30T14:14:44.851Z,30.35
2022-08-30T14:17:17.396Z,30.34
2022-08-30T14:19:50.093Z,30.32
2022-08-30T14:22:22.429Z,30.30
2022-08-30T14:24:55.879Z,30.26
2022-08-30T14:27:27.771Z,30.25
2022-08-30T14:30:01.240Z,30.24
2022-08-30T14:32:33.832Z,30.24
2022-08-30T14:35:06.920Z,30.24
2022-08-30T14:37:39.605Z,30.25
2022-08-30T14:40:11.948Z,30.25
2022-08-30T14:42:44.244Z,30.24
2022-08-30T14:45:16.255Z,30.25
2022-08-30T14:47:48.805Z,30.24
2022-08-30T14:50:21.064Z,30.23
2022-08-30T14:52:52.924Z,30.25
2022-08-30T14:55:24.779Z,30.23
2022-08-30T14:57:56.583Z,30.20
2022-08-30T15:00:28.449Z,30.22
2022-08-30T15:03:00.281Z,30.20
2022-08-30T15:05:33.480Z,30.18
2022-08-30T15:08:05.507Z,30.16
2022-08-30T15:10:37.302Z,30.16
2022-08-30T15:13:10.473Z,30.15
2022-08-30T15:15:44.212Z,30.14
2022-08-30T15:18:16.178Z,30.11
2022-08-30T15:20:51.422Z,30.12
2022-08-30T15:23:24.975Z,30.12
2022-08-30T15:25:56.958Z,30.11
2022-08-30T15:28:28.939Z,30.12
2022-08-30T15:31:03.082Z,30.13
2022-08-30T15:33:39.058Z,30.13
2022-08-30T15:36:11.533Z,30.14
2022-08-30T15:38:44.173Z,30.13
2022-08-30T15:41:16.288Z,30.13
2022-08-30T15:43:48.135Z,30.11
2022-08-30T15:46:20.007Z,30.10
2022-08-30T15:48:54.539Z,30.07
2022-08-30T15:51:28.031Z,30.02
2022-08-30T15:53:59.824Z,30.01
2022-08-30T15:56:32.065Z,29.99
2022-08-30T15:59:04.917Z,30.08
2022-08-30T16:01:40.139Z,30.15
2022-08-30T16:04:12.615Z,30.19
2022-08-30T16:06:44.894Z,30.23
2022-08-30T16:09:17.099Z,30.24
2022-08-30T16:11:50.411Z,30.27
2022-08-30T16:14:22.260Z,30.28
2022-08-30T16:16:55.173Z,30.30
2022-08-30T16:19:27.379Z,30.27
2022-08-30T16:22:00.810Z,30.27
2022-08-30T16:24:33.114Z,30.26
2022-08-30T16:27:05.418Z,30.25
2022-08-30T16:29:37.329Z,30.24
2022-08-30T16:32:09.239Z,30.21
2022-08-30T16:34:41.595Z,30.21
2022-08-30T16:37:13.627Z,30.19
2022-08-30T16:39:46.666Z,30.18
2022-08-30T16:42:21.037Z,30.15
2022-08-30T16:44:53.352Z,30.13
2022-08-30T16:47:27.451Z,30.13
2022-08-30T16:50:01.747Z,30.12
2022-08-30T16:52:33.584Z,30.11
2022-08-30T16:55:07.362Z,30.08
2022-08-30T16:57:39.198Z,30.06
2022-08-30T17:00:13.748Z,30.05
2022-08-30T17:02:54.221Z,30.04
2022-08-30T17:05:26.312Z,30.02
2022-08-30T17:07:59.725Z,30.02
2022-08-30T17:10:35.219Z,30.01
2022-08-30T17:13:07.224Z,30.00
2022-08-30T17:15:39.071Z,29.99
2022-08-30T17:18:11.550Z,29.98
2022-08-30T17:20:46.556Z,29.97
2022-08-30T17:23:19.037Z,29.93
2022-08-30T17:25:51.463Z,29.93
2022-08-30T17:28:23.496Z,29.91
2022-08-30T17:30:55.371Z,29.89
2022-08-30T17:33:27.667Z,29.87
2022-08-30T17:35:59.538Z,29.83
2022-08-30T17:38:32.136Z,29.82
2022-08-30T17:41:07.580Z,29.80
2022-08-30T17:43:40.073Z,29.80
2022-08-30T17:46:19.908Z,29.79
2022-08-30T17:48:57.735Z,29.76
2022-08-30T17:51:33.434Z,29.74
2022-08-30T17:54:05.279Z,29.74
2022-08-30T17:56:37.087Z,29.72
2022-08-30T17:59:09.746Z,29.70
2022-08-30T18:01:45.678Z,29.69
2022-08-30T18:04:19.474Z,29.69
2022-08-30T18:06:51.690Z,29.67
2022-08-30T18:09:23.652Z,29.66
2022-08-30T18:11:56.291Z,29.63
2022-08-30T18:14:28.569Z,29.63
2022-08-30T18:17:00.809Z,29.64
2022-08-30T18:19:33.740Z,29.62
2022-08-30T18:22:05.595Z,29.61
2022-08-30T18:24:37.903Z,29.59
2022-08-30T18:27:09.693Z,29.59
2022-08-30T18:29:41.730Z,29.57
2022-08-30T18:32:14.866Z,29.55
2022-08-30T18:34:47.241Z,29.55
2022-08-30T18:37:19.067Z,29.53
2022-08-30T18:39:56.993Z,29.53
2022-08-30T18:42:30.590Z,29.51
2022-08-30T18:45:14.461Z,29.49
2022-08-30T18:47:46.830Z,29.48
2022-08-30T18:50:18.884Z,29.47
2022-08-30T18:52:52.010Z,29.44
2022-08-30T18:55:28.271Z,29.44
2022-08-30T18:58:01.804Z,29.43
2022-08-30T19:00:34.720Z,29.42
2022-08-30T19:03:06.606Z,29.42
2022-08-30T19:05:40.375Z,29.40
2022-08-30T19:08:13.916Z,29.39
2022-08-30T19:10:46.002Z,29.39
2022-08-30T19:13:18.272Z,29.36
2022-08-30T19:15:50.646Z,29.34
2022-08-30T19:18:23.868Z,29.33
2022-08-30T19:20:56.294Z,29.32
2022-08-30T19:23:34.365Z,29.31
2022-08-30T19:26:07.029Z,29.30
2022-08-30T19:28:39.046Z,29.28
2022-08-30T19:31:11.265Z,29.28
2022-08-30T19:33:43.153Z,29.26
2022-08-30T19:36:15.145Z,29.26
2022-08-30T19:38:47.599Z,29.25
2022-08-30T19:41:19.434Z,29.23
2022-08-30T19:43:51.753Z,29.21
2022-08-30T19:46:23.697Z,29.21
2022-08-30T19:48:56.529Z,29.19
2022-08-30T19:51:28.760Z,29.17
2022-08-30T19:54:03.235Z,29.18
2022-08-30T19:56:35.163Z,29.17
2022-08-30T19:59:06.972Z,29.15
2022-08-30T20:01:39.254Z,29.16
2022-08-30T20:04:12.751Z,29.15
2022-08-30T20:06:46.524Z,29.12
2022-08-30T20:09:18.784Z,29.12
2022-08-30T20:11:53.806Z,29.11
2022-08-30T20:14:27.667Z,29.11
2022-08-30T20:16:59.466Z,29.10
2022-08-30T20:19:35.271Z,29.08
2022-08-30T20:22:09.027Z,29.05
2022-08-30T20:24:43.922Z,29.04
2022-08-30T20:27:16.713Z,29.03
2022-08-30T20:29:48.525Z,29.02
2022-08-30T20:32:20.689Z,29.03
2022-08-30T20:34:54.867Z,29.02
2022-08-30T20:37:27.967Z,29.03
2022-08-30T20:40:00.271Z,29.03
2022-08-30T20:42:32.196Z,29.02
2022-08-30T20:45:06.012Z,29.00
2022-08-30T20:47:40.236Z,28.99
2022-08-30T20:50:14.731Z,28.98
2022-08-30T20:52:47.419Z,28.96
2022-08-30T20:55:20.073Z,28.95
2022-08-30T20:57:51.898Z,28.94
2022-08-30T21:00:23.712Z,28.93
2022-08-30T21:02:58.376Z,28.93
2022-08-30T21:05:30.695Z,28.91
2022-08-30T21:08:02.595Z,28.89
2022-08-30T21:10:42.778Z,28.88
2022-08-30T21:13:14.455Z,28.86
2022-08-30T21:15:47.608Z,28.85
2022-08-30T21:18:19.561Z,28.84
2022-08-30T21:20:51.627Z,28.83
2022-08-30T21:23:23.886Z,28.81
2022-08-30T21:25:55.781Z,28.78
2022-08-30T21:28:27.605Z,28.80
2022-08-30T21:31:09.777Z,28.78
2022-08-30T21:33:42.877Z,28.77
2022-08-30T21:36:32.632Z,28.76
2022-08-30T21:39:05.652Z,28.76
2022-08-30T21:41:39.033Z,28.74
2022-08-30T21:44:17.239Z,28.72
2022-08-30T21:46:49.945Z,28.73
2022-08-30T21:49:23.186Z,28.72
2022-08-30T21:51:56.438Z,28.72
2022-08-30T21:54:31.343Z,28.72
2022-08-30T21:57:04.334Z,28.70
2022-08-30T21:59:36.393Z,28.70
2022-08-30T22:02:09.040Z,28.69
2022-08-30T22:04:42.186Z,28.69
2022-08-30T22:07:13.942Z,28.72
2022-08-30T22:09:46.209Z,28.70
2022-08-30T22:12:18.571Z,28.68
2022-08-30T22:14:50.466Z,28.68
2022-08-30T22:17:22.257Z,28.67
2022-08-30T22:19:54.608Z,28.67
2022-08-30T22:22:26.479Z,28.66
2022-08-30T22:24:58.367Z,28.63
2022-08-30T22:27:32.952Z,28.63
2022-08-30T22:30:05.080Z,28.61
2022-08-30T22:32:39.895Z,28.58
2022-08-30T22:35:12.062Z,28.57
2022-08-30T22:37:47.785Z,28.55
2022-08-30T22:40:25.761Z,28.54
2022-08-30T22:42:57.712Z,28.51
2022-08-30T22:45:30.723Z,28.51
2022-08-30T22:48:02.628Z,28.51
2022-08-30T22:50:34.851Z,28.51
2022-08-30T22:53:07.358Z,28.58
2022-08-30T22:55:41.652Z,28.70
2022-08-30T22:58:13.497Z,28.81
2022-08-30T23:00:54.506Z,28.92
2022-08-30T23:03:27.295Z,29.01
2022-08-30T23:05:59.767Z,29.09
2022-08-30T23:08:31.532Z,29.17
2022-08-30T23:11:03.342Z,29.26
2022-08-30T23:13:35.100Z,29.34
2022-08-30T23:16:09.292Z,29.39
2022-08-30T23:18:42.627Z,29.43
2022-08-30T23:21:19.097Z,29.48
2022-08-30T23:24:10.349Z,29.52
2022-08-30T23:27:01.580Z,29.56
2022-08-30T23:29:53.952Z,29.61
2022-08-30T23:32:44.032Z,29.65
2022-08-30T23:35:34.123Z,29.67
2022-08-30T23:38:25.824Z,29.70
2022-08-30T23:41:15.735Z,29.71
2022-08-30T23:44:05.611Z,29.80
2022-08-30T23:46:56.150Z,29.91
2022-08-30T23:49:46.387Z,29.97
2022-08-30T23:52:36.482Z,30.00
2022-08-30T23:55:27.836Z,30.07
2022-08-30T23:58:17.956Z,30.12
